Meteo Giornale » Osservazioni meteo Stati Uniti (USA) » Omaha Eppley Airfield
ore: 15:52 - Osservazioni Meteo Omaha Eppley Airfield
Lat. 41° 18' N Lon. 95° 53' W Alt. 299 metri s.l.m.
33 °C
Molto Nuvoloso
Temp. 24 Ore
23 °C
33 °C
Nord
9.3 Km/h
Dew point 22 °C
Umidità 52 %
Visibilità 10 Km
Il sole sorge alle ore 06:49
Il sole tramonta alle ore 19:58
| Data e Ora | Cielo e Fenomeni | T °C | DP °C | Um. % | Pres. hPa | Vis. km | Vento km/h | |
|---|---|---|---|---|---|---|---|---|
| Oggi h: 15:52 | Molto Nuvoloso | 33 | 22 | 52 | 1012 | 10 | N 9.3 | |
| Oggi h: 14:52 | Molto Nuvoloso | 33 | 21 | 49 | 1013 | 10 | S/SO 9.3 | |
| Oggi h: 13:52 | Molto Nuvoloso | 32 | 22 | 55 | 1013 | 10 | NO 9.3 | |
| Oggi h: 12:52 | Molto Nuvoloso | 29 | 22 | 66 | 1013 | 10 | N 0 | |
| Oggi h: 11:52 | Molto Nuvoloso | 29 | 22 | 66 | 1013 | 10 | N 13 | |
| Oggi h: 10:52 | Molto Nuvoloso | 27 | 22 | 74 | 1012 | 10 | N 5.5 | |
| Oggi h: 09:52 | Nuvoloso | 27 | 22 | 74 | 1012 | 10 | N 5.5 | |
| Oggi h: 08:52 | Molto Nuvoloso | 25 | 22 | 83 | 1011 | 10 | N/NO 14.8 | |
| Oggi h: 07:52 | Molto Nuvoloso | 25 | 22 | 83 | 1012 | 10 | S/SE 9.3 | |
| Oggi h: 06:52 | Molto Nuvoloso | 24 | 21 | 83 | 1011 | 10 | SE 7.4 | |
| Oggi h: 05:52 | Molto Nuvoloso | 23 | 21 | 88 | 1010 | 10 | S/SE 11.1 | |
| Oggi h: 04:52 | Molto Nuvoloso | 24 | 21 | 83 | 1010 | 10 | N 5.5 | |
| Oggi h: 03:52 | Sereno | 24 | 21 | 83 | 1009 | 10 | S/SE 11.1 | |
| Oggi h: 02:52 | Poco Nuvoloso | 25 | 22 | 83 | 1009 | 10 | S/SE 13 | |
| Oggi h: 01:52 | Nuvoloso | 25 | 23 | 88 | 1009 | 10 | SE 11.1 | |
| Oggi h: 00:52 | Nuvoloso | 24 | 23 | 94 | 1009 | 10 | N/NO 7.4 | |
| Ieri h: 23:52 | Poco Nuvoloso | 27 | 23 | 78 | 1008 | 10 | N 0 | |
| Ieri h: 22:52 | Nuvoloso | 25 | 23 | 88 | 1009 | 10 | N 0 | |
| Ieri h: 21:52 | Nuvoloso | 28 | 23 | 74 | 1009 | 10 | N 5.5 | |
| Ieri h: 20:52 | Nuvoloso | 28 | 23 | 74 | 1008 | 10 | SE 7.4 | |
| Ieri h: 19:52 | Nuvoloso | 31 | 22 | 58 | 1008 | 10 | N 5.5 | |
| Ieri h: 18:52 | Nuvoloso | 33 | 22 | 52 | 1008 | 10 | S 9.3 | |
| Ieri h: 17:52 | Molto Nuvoloso | 33 | 21 | 49 | 1008 | 10 | S 14.8 | |
| Ieri h: 16:52 | Molto Nuvoloso | 33 | 21 | 49 | 1008 | 10 | S 16.7 | |



